createdAt,value
2018-05-17T00:01:38.802Z,5.20
2018-05-17T00:04:07.222Z,5.87
2018-05-17T00:06:37.047Z,5.40
2018-05-17T00:09:06.558Z,5.30
2018-05-17T00:11:34.742Z,5.10
2018-05-17T00:14:03.612Z,5.47
2018-05-17T00:16:32.762Z,5.57
2018-05-17T00:19:01.810Z,5.80
2018-05-17T00:21:30.013Z,5.03
2018-05-17T00:23:58.456Z,5.57
2018-05-17T00:26:26.882Z,5.17
2018-05-17T00:28:55.287Z,5.90
2018-05-17T00:31:24.659Z,5.03
2018-05-17T00:33:53.188Z,5.90
2018-05-17T00:36:21.608Z,5.43
2018-05-17T00:38:49.757Z,5.10
2018-05-17T00:41:18.023Z,5.37
2018-05-17T00:43:46.766Z,5.37
2018-05-17T00:46:14.919Z,5.20
2018-05-17T00:48:45.039Z,5.37
2018-05-17T00:51:14.224Z,6.13
2018-05-17T00:53:43.585Z,5.03
2018-05-17T00:56:12.178Z,5.53
2018-05-17T00:58:40.811Z,6.13
2018-05-17T01:01:09.775Z,6.53
2018-05-17T01:03:38.931Z,5.27
2018-05-17T01:06:07.142Z,5.27
2018-05-17T01:08:35.745Z,5.20
2018-05-17T01:11:04.413Z,5.33
2018-05-17T01:13:32.835Z,5.70
2018-05-17T01:16:01.003Z,5.10
2018-05-17T01:18:29.886Z,5.50
2018-05-17T01:20:58.379Z,5.40
2018-05-17T01:23:27.238Z,5.30
2018-05-17T01:25:55.846Z,5.83
2018-05-17T01:28:25.346Z,5.33
2018-05-17T01:30:53.872Z,5.30
2018-05-17T01:33:22.699Z,4.43
2018-05-17T01:35:51.689Z,4.93
2018-05-17T01:38:27.582Z,5.77
2018-05-17T01:40:55.774Z,4.73
2018-05-17T01:43:24.634Z,5.30
2018-05-17T01:45:53.904Z,5.07
2018-05-17T01:48:22.054Z,5.70
2018-05-17T01:50:51.842Z,5.40
2018-05-17T01:53:20.023Z,5.30
2018-05-17T01:55:50.205Z,6.40
2018-05-17T01:58:19.234Z,5.67
2018-05-17T02:00:47.878Z,5.40
2018-05-17T02:03:16.707Z,4.80
2018-05-17T02:05:45.858Z,5.83
2018-05-17T02:08:14.039Z,5.77
2018-05-17T02:10:42.910Z,6.23
2018-05-17T02:13:11.091Z,6.40
2018-05-17T02:15:40.171Z,6.13
2018-05-17T02:18:08.815Z,5.80
2018-05-17T02:20:36.963Z,5.73
2018-05-17T02:23:05.654Z,4.83
2018-05-17T02:25:34.861Z,5.47
2018-05-17T02:28:03.778Z,5.60
2018-05-17T02:30:32.693Z,5.40
2018-05-17T02:33:01.843Z,5.13
2018-05-17T02:35:30.986Z,5.73
2018-05-17T02:38:00.219Z,5.87
2018-05-17T02:40:28.885Z,5.33
2018-05-17T02:42:57.473Z,5.83
2018-05-17T02:45:26.551Z,6.00
2018-05-17T02:47:54.985Z,5.03
2018-05-17T02:50:23.139Z,4.70
2018-05-17T02:52:51.527Z,5.23
2018-05-17T02:55:20.145Z,5.47
2018-05-17T02:57:48.669Z,5.53
2018-05-17T03:00:17.825Z,5.23
2018-05-17T03:02:46.974Z,4.93
2018-05-17T03:05:15.761Z,5.30
2018-05-17T03:07:44.003Z,5.13
2018-05-17T03:10:12.411Z,5.30
2018-05-17T03:12:41.039Z,6.13
2018-05-17T03:15:09.498Z,5.27
2018-05-17T03:17:37.695Z,5.13
2018-05-17T03:20:06.550Z,5.67
2018-05-17T03:22:35.374Z,6.30
2018-05-17T03:25:03.982Z,4.77
2018-05-17T03:27:32.176Z,4.70
2018-05-17T03:30:01.641Z,5.60
2018-05-17T03:32:29.743Z,6.17
2018-05-17T03:34:58.750Z,5.00
2018-05-17T03:37:27.727Z,5.57
2018-05-17T03:39:56.623Z,5.70
2018-05-17T03:42:26.067Z,5.53
2018-05-17T03:44:54.522Z,5.70
2018-05-17T03:47:23.662Z,5.63
2018-05-17T03:49:52.763Z,5.83
2018-05-17T03:52:21.869Z,5.97
2018-05-17T03:54:50.047Z,6.00
2018-05-17T03:57:19.227Z,5.83
2018-05-17T03:59:47.660Z,5.87
2018-05-17T04:02:27.783Z,5.23
2018-05-17T04:05:08.691Z,5.17
2018-05-17T04:07:36.807Z,5.17
2018-05-17T04:10:04.989Z,5.87
2018-05-17T04:12:33.531Z,5.60
2018-05-17T04:15:02.071Z,5.47
2018-05-17T04:17:30.737Z,4.80
2018-05-17T04:19:59.122Z,6.37
2018-05-17T04:22:27.986Z,6.00
2018-05-17T04:24:56.628Z,5.60
2018-05-17T04:27:24.781Z,5.67
2018-05-17T04:29:52.958Z,4.97
2018-05-17T04:32:21.362Z,4.93
2018-05-17T04:34:49.790Z,4.30
2018-05-17T04:37:18.943Z,5.80
2018-05-17T04:39:47.142Z,4.87
2018-05-17T04:42:16.482Z,5.83
2018-05-17T04:44:44.702Z,4.97
2018-05-17T04:47:14.703Z,5.90
2018-05-17T04:49:43.138Z,6.10
2018-05-17T04:52:11.664Z,6.30
2018-05-17T04:54:40.161Z,5.67
2018-05-17T04:57:08.714Z,6.50
2018-05-17T04:59:36.861Z,5.77
2018-05-17T05:02:06.171Z,5.47
2018-05-17T05:04:34.814Z,5.97
2018-05-17T05:07:03.966Z,5.43
2018-05-17T05:09:33.923Z,5.37
2018-05-17T05:12:02.007Z,5.13
2018-05-17T05:14:30.483Z,6.13
2018-05-17T05:16:59.009Z,5.53
2018-05-17T05:19:29.506Z,5.77
2018-05-17T05:21:57.686Z,5.13
2018-05-17T05:24:26.434Z,5.17
2018-05-17T05:26:54.618Z,4.90
2018-05-17T05:29:22.807Z,5.40
2018-05-17T05:31:52.255Z,5.20
2018-05-17T05:34:20.881Z,5.30
2018-05-17T05:36:49.268Z,5.60
2018-05-17T05:39:17.895Z,5.63
2018-05-17T05:41:46.295Z,5.63
2018-05-17T05:44:14.739Z,5.00
2018-05-17T05:46:44.111Z,5.30
2018-05-17T05:49:12.683Z,5.23
2018-05-17T05:51:41.501Z,5.43
2018-05-17T05:54:10.430Z,5.60
2018-05-17T05:56:39.806Z,5.23
2018-05-17T05:59:08.959Z,5.07
2018-05-17T06:01:37.133Z,5.80
2018-05-17T06:04:06.207Z,5.53
2018-05-17T06:06:34.812Z,5.87
2018-05-17T06:09:02.999Z,5.93
2018-05-17T06:11:31.796Z,5.27
2018-05-17T06:14:01.227Z,6.63
2018-05-17T06:16:29.996Z,8.80
2018-05-17T06:18:58.626Z,12.70
2018-05-17T06:21:27.663Z,11.80
2018-05-17T06:23:55.854Z,10.90
2018-05-17T06:26:24.519Z,8.57
2018-05-17T06:28:53.043Z,8.33
2018-05-17T06:31:22.717Z,8.07
2018-05-17T06:33:52.809Z,7.73
2018-05-17T06:36:21.847Z,8.80
2018-05-17T06:38:50.039Z,11.07
2018-05-17T06:41:18.702Z,9.63
2018-05-17T06:43:46.908Z,10.30
2018-05-17T06:46:15.407Z,7.70
2018-05-17T06:48:43.599Z,7.97
2018-05-17T06:51:12.138Z,8.70
2018-05-17T06:53:40.806Z,7.70
2018-05-17T06:56:10.065Z,6.20
2018-05-17T06:58:38.483Z,7.10
2018-05-17T07:01:07.350Z,6.33
2018-05-17T07:03:35.497Z,5.77
2018-05-17T07:06:04.506Z,5.93
2018-05-17T07:08:33.523Z,5.73
2018-05-17T07:11:02.157Z,5.40
2018-05-17T07:13:31.190Z,4.83
2018-05-17T07:15:59.626Z,5.43
2018-05-17T07:18:28.332Z,5.30
2018-05-17T07:20:56.676Z,5.97
2018-05-17T07:23:24.829Z,5.90
2018-05-17T07:25:53.833Z,6.03
2018-05-17T07:28:22.254Z,6.70
2018-05-17T07:30:50.883Z,7.43
2018-05-17T07:33:19.027Z,6.90
2018-05-17T07:35:48.342Z,6.03
2018-05-17T07:38:17.177Z,8.17
2018-05-17T07:40:45.791Z,7.47
2018-05-17T07:43:14.962Z,9.37
2018-05-17T07:45:43.942Z,8.50
2018-05-17T07:48:12.653Z,8.20
2018-05-17T07:50:41.806Z,8.50
2018-05-17T07:53:10.233Z,9.37
2018-05-17T07:55:38.757Z,9.40
2018-05-17T07:58:07.178Z,8.77
2018-05-17T08:00:35.720Z,9.73
2018-05-17T08:03:04.747Z,9.43
2018-05-17T08:05:33.899Z,8.90
2018-05-17T08:08:03.576Z,7.80
2018-05-17T08:10:32.527Z,6.67
2018-05-17T08:13:01.451Z,7.60
2018-05-17T08:15:29.638Z,8.43
2018-05-17T08:17:57.886Z,6.50
2018-05-17T08:20:27.325Z,6.17
2018-05-17T08:22:56.490Z,7.20
2018-05-17T08:25:25.134Z,8.27
2018-05-17T08:27:53.869Z,7.50
2018-05-17T08:30:22.904Z,8.90
2018-05-17T08:32:51.303Z,9.37
2018-05-17T08:35:19.931Z,7.03
2018-05-17T08:37:48.355Z,6.60
2018-05-17T08:40:16.982Z,7.07
2018-05-17T08:42:45.495Z,7.30
2018-05-17T08:45:14.138Z,8.53
2018-05-17T08:47:42.701Z,7.43
2018-05-17T08:50:11.227Z,7.00
2018-05-17T08:52:39.376Z,6.83
2018-05-17T08:55:07.958Z,6.97
2018-05-17T08:57:36.998Z,6.50
2018-05-17T09:00:07.209Z,6.73
2018-05-17T09:02:36.432Z,8.20
2018-05-17T09:05:05.607Z,7.17
2018-05-17T09:07:34.040Z,7.07
2018-05-17T09:10:02.530Z,7.50
2018-05-17T09:12:30.986Z,9.70
2018-05-17T09:14:59.619Z,8.43
2018-05-17T09:17:27.822Z,7.87
2018-05-17T09:19:56.459Z,7.87
2018-05-17T09:22:25.807Z,7.87
2018-05-17T09:24:54.023Z,8.10
2018-05-17T09:27:23.076Z,7.33
2018-05-17T09:29:51.681Z,7.00
2018-05-17T09:32:20.863Z,7.00
2018-05-17T09:34:49.495Z,7.57
2018-05-17T09:37:18.019Z,5.73
2018-05-17T09:39:46.440Z,6.37
2018-05-17T09:42:14.591Z,6.40
2018-05-17T09:44:43.874Z,6.50
2018-05-17T09:47:12.749Z,6.50
2018-05-17T09:49:41.574Z,5.80
2018-05-17T09:52:09.767Z,6.40
2018-05-17T09:54:37.942Z,6.67
2018-05-17T09:57:06.838Z,6.40
2018-05-17T09:59:35.049Z,6.90
2018-05-17T10:02:03.550Z,7.00
2018-05-17T10:04:32.119Z,6.03
2018-05-17T10:07:02.091Z,6.60
2018-05-17T10:09:31.039Z,6.97
2018-05-17T10:11:59.219Z,6.43
2018-05-17T10:14:28.205Z,6.23
2018-05-17T10:16:56.795Z,6.40
2018-05-17T10:19:26.091Z,6.33
2018-05-17T10:21:55.409Z,6.87
2018-05-17T10:24:23.766Z,7.80
2018-05-17T10:26:51.910Z,6.70
2018-05-17T10:29:20.697Z,7.50
2018-05-17T10:31:48.995Z,7.43
2018-05-17T10:34:17.660Z,6.60
2018-05-17T10:36:45.806Z,7.13
2018-05-17T10:39:14.814Z,7.17
2018-05-17T10:41:43.030Z,7.10
2018-05-17T10:44:11.623Z,6.67
2018-05-17T10:46:40.079Z,6.83
2018-05-17T10:49:08.501Z,6.20
2018-05-17T10:51:36.645Z,6.53
2018-05-17T10:54:05.135Z,6.07
2018-05-17T10:56:33.517Z,6.43
2018-05-17T10:59:01.711Z,7.47
2018-05-17T11:01:30.293Z,6.83
2018-05-17T11:03:58.714Z,6.90
2018-05-17T11:06:26.869Z,6.77
2018-05-17T11:08:55.078Z,5.90
2018-05-17T11:11:23.875Z,5.93
2018-05-17T11:13:52.294Z,6.93
2018-05-17T11:16:20.535Z,6.83
2018-05-17T11:18:49.947Z,6.53
2018-05-17T11:21:19.115Z,6.30
2018-05-17T11:23:47.755Z,6.00
2018-05-17T11:26:16.686Z,6.07
2018-05-17T11:28:44.886Z,7.30
2018-05-17T11:31:13.071Z,7.03
2018-05-17T11:33:41.666Z,6.73
2018-05-17T11:36:11.310Z,6.73
2018-05-17T11:38:39.519Z,6.63
2018-05-17T11:41:09.614Z,6.50
2018-05-17T11:43:38.558Z,6.50
2018-05-17T11:46:07.710Z,6.33
2018-05-17T11:48:36.690Z,5.93
2018-05-17T11:51:04.975Z,6.40
2018-05-17T11:53:33.620Z,6.53
2018-05-17T11:56:02.662Z,5.40
2018-05-17T11:58:31.608Z,5.60
2018-05-17T12:01:00.538Z,6.40
2018-05-17T12:03:28.774Z,5.87
2018-05-17T12:05:58.022Z,6.13
2018-05-17T12:08:27.172Z,7.00
2018-05-17T12:10:56.311Z,6.30
2018-05-17T12:13:24.646Z,6.80
2018-05-17T12:15:53.793Z,6.33
2018-05-17T12:18:22.005Z,6.60
2018-05-17T12:20:50.426Z,6.50
2018-05-17T12:23:18.579Z,6.10
2018-05-17T12:25:47.268Z,6.13
2018-05-17T12:28:16.425Z,5.73
2018-05-17T12:30:44.622Z,6.10
2018-05-17T12:33:13.459Z,6.63
2018-05-17T12:35:42.507Z,6.40
2018-05-17T12:38:11.464Z,6.60
2018-05-17T12:40:39.885Z,5.70
2018-05-17T12:43:08.306Z,6.80
2018-05-17T12:45:36.919Z,5.93
2018-05-17T12:48:05.357Z,6.03
2018-05-17T12:50:34.196Z,5.93
2018-05-17T12:53:02.427Z,5.83
2018-05-17T12:55:32.906Z,6.60
2018-05-17T12:58:02.386Z,5.13
2018-05-17T13:00:31.537Z,6.00
2018-05-17T13:02:59.714Z,6.27
2018-05-17T13:05:28.174Z,6.37
2018-05-17T13:07:57.103Z,5.83
2018-05-17T13:10:25.810Z,5.53
2018-05-17T13:12:54.852Z,6.07
2018-05-17T13:15:24.050Z,5.53
2018-05-17T13:17:53.087Z,5.97
2018-05-17T13:20:22.249Z,5.43
2018-05-17T13:22:50.471Z,5.97
2018-05-17T13:25:18.691Z,6.00
2018-05-17T13:27:49.383Z,6.40
2018-05-17T13:30:17.739Z,5.90
2018-05-17T13:32:46.326Z,5.20
2018-05-17T13:35:14.970Z,5.97
2018-05-17T13:37:43.394Z,6.17
2018-05-17T13:40:11.812Z,5.67
2018-05-17T13:42:41.073Z,5.33
2018-05-17T13:45:09.455Z,5.40
2018-05-17T13:47:38.388Z,5.53
2018-05-17T13:50:06.855Z,5.23
2018-05-17T13:52:35.999Z,5.27
2018-05-17T13:55:04.428Z,5.13
2018-05-17T13:57:32.850Z,5.23
2018-05-17T14:00:01.585Z,5.30
2018-05-17T14:02:30.246Z,5.37
2018-05-17T14:04:58.966Z,5.93
2018-05-17T14:07:27.334Z,5.33
2018-05-17T14:09:56.419Z,5.30
2018-05-17T14:12:24.562Z,5.30
2018-05-17T14:14:53.157Z,5.40
2018-05-17T14:17:21.542Z,5.80
2018-05-17T14:19:49.734Z,6.20
2018-05-17T14:22:18.439Z,5.53
2018-05-17T14:24:49.438Z,5.77
2018-05-17T14:27:19.117Z,5.30
2018-05-17T14:29:47.757Z,5.20
2018-05-17T14:32:16.180Z,4.70
2018-05-17T14:34:44.330Z,4.43
2018-05-17T14:37:13.962Z,4.90
2018-05-17T14:39:43.218Z,5.40
2018-05-17T14:42:11.639Z,4.87
2018-05-17T14:44:40.688Z,5.57
2018-05-17T14:47:08.890Z,5.50
2018-05-17T14:49:37.426Z,5.27
2018-05-17T14:52:05.574Z,4.77
2018-05-17T14:54:33.759Z,4.17
2018-05-17T14:57:02.710Z,5.50
2018-05-17T14:59:33.706Z,5.10
2018-05-17T15:02:04.230Z,5.50
2018-05-17T15:04:33.205Z,5.83
2018-05-17T15:07:02.397Z,5.40
2018-05-17T15:09:30.582Z,4.77
2018-05-17T15:11:58.774Z,6.00
2018-05-17T15:14:27.242Z,5.13
2018-05-17T15:16:56.015Z,5.03
2018-05-17T15:19:25.988Z,5.43
2018-05-17T15:21:54.507Z,5.43
2018-05-17T15:24:23.017Z,5.50
2018-05-17T15:26:51.542Z,5.53
2018-05-17T15:29:20.416Z,6.03
2018-05-17T15:31:49.882Z,5.33
2018-05-17T15:34:18.407Z,4.83
2018-05-17T15:36:46.599Z,5.40
2018-05-17T15:39:15.238Z,5.07
2018-05-17T15:41:43.496Z,5.80
2018-05-17T15:44:11.663Z,6.00
2018-05-17T15:46:40.307Z,5.73
2018-05-17T15:49:08.830Z,5.70
2018-05-17T15:51:37.218Z,5.03
2018-05-17T15:54:05.398Z,6.23
2018-05-17T15:56:33.583Z,6.10
2018-05-17T15:59:02.270Z,5.53
2018-05-17T16:01:30.937Z,5.90
2018-05-17T16:03:59.357Z,5.77
2018-05-17T16:06:27.627Z,6.23
2018-05-17T16:08:56.658Z,6.00
2018-05-17T16:11:25.143Z,5.87
2018-05-17T16:13:53.669Z,5.50
2018-05-17T16:16:22.366Z,5.60
2018-05-17T16:18:50.547Z,5.70
2018-05-17T16:21:18.725Z,6.23
2018-05-17T16:23:47.863Z,6.27
2018-05-17T16:26:16.404Z,5.77
2018-05-17T16:28:45.452Z,5.90
2018-05-17T16:31:13.630Z,5.90
2018-05-17T16:33:42.710Z,5.40
2018-05-17T16:36:11.514Z,6.47
2018-05-17T16:38:40.054Z,6.50
2018-05-17T16:41:08.903Z,5.73
2018-05-17T16:43:37.507Z,6.37
2018-05-17T16:46:05.966Z,5.73
2018-05-17T16:48:34.423Z,6.03
2018-05-17T16:51:02.539Z,5.60
2018-05-17T16:53:30.727Z,5.87
2018-05-17T16:56:00.172Z,5.83
2018-05-17T16:58:28.431Z,6.03
2018-05-17T17:00:58.755Z,5.70
2018-05-17T17:03:27.212Z,5.20
2018-05-17T17:05:55.358Z,5.07
2018-05-17T17:08:24.726Z,6.00
2018-05-17T17:10:53.211Z,5.60
2018-05-17T17:13:22.034Z,6.10
2018-05-17T17:15:50.679Z,6.00
2018-05-17T17:18:19.515Z,5.50
2018-05-17T17:20:48.106Z,6.47
2018-05-17T17:23:16.311Z,5.57
2018-05-17T17:25:44.883Z,5.93
2018-05-17T17:28:13.815Z,5.13
2018-05-17T17:30:42.686Z,6.40
2018-05-17T17:33:10.774Z,5.53
2018-05-17T17:35:39.299Z,5.57
2018-05-17T17:38:08.126Z,6.07
2018-05-17T17:40:56.404Z,6.37
2018-05-17T17:43:24.643Z,6.13
2018-05-17T17:45:54.487Z,5.50
2018-05-17T17:48:24.236Z,5.57
2018-05-17T17:50:52.805Z,6.03
2018-05-17T17:53:21.399Z,6.23
2018-05-17T17:55:50.378Z,5.80
2018-05-17T17:58:19.114Z,5.50
2018-05-17T18:00:47.952Z,5.93
2018-05-17T18:03:16.478Z,6.80
2018-05-17T18:05:45.107Z,6.10
2018-05-17T18:08:14.469Z,6.10
2018-05-17T18:10:42.681Z,6.03
2018-05-17T18:13:11.314Z,5.50
2018-05-17T18:15:40.021Z,5.87
2018-05-17T18:18:09.479Z,5.97
2018-05-17T18:20:37.933Z,5.37
2018-05-17T18:23:06.532Z,5.50
2018-05-17T18:25:34.719Z,5.90
2018-05-17T18:28:03.202Z,6.10
2018-05-17T18:30:32.335Z,5.50
2018-05-17T18:33:02.409Z,6.23
2018-05-17T18:35:31.482Z,6.10
2018-05-17T18:38:00.427Z,6.43
2018-05-17T18:40:28.614Z,5.90
2018-05-17T18:42:56.830Z,6.37
2018-05-17T18:45:25.280Z,6.27
2018-05-17T18:47:54.117Z,5.73
2018-05-17T18:50:22.942Z,6.80
2018-05-17T18:52:51.471Z,6.73
2018-05-17T18:55:22.916Z,6.13
2018-05-17T18:57:48.326Z,5.70
2018-05-17T19:00:16.926Z,6.30
2018-05-17T19:02:45.419Z,4.70
2018-05-17T19:05:13.534Z,5.67
2018-05-17T19:07:41.805Z,5.33
2018-05-17T19:10:10.187Z,5.57
2018-05-17T19:12:39.374Z,5.83
2018-05-17T19:15:07.519Z,6.17
2018-05-17T19:17:35.786Z,6.17
2018-05-17T19:20:04.220Z,6.03
2018-05-17T19:22:33.255Z,5.63
2018-05-17T19:25:01.794Z,5.80
2018-05-17T19:27:30.183Z,6.27
2018-05-17T19:29:58.367Z,6.00
2018-05-17T19:32:28.072Z,5.97
2018-05-17T19:34:56.251Z,6.00
2018-05-17T19:37:26.166Z,6.10
2018-05-17T19:39:55.259Z,6.00
2018-05-17T19:42:24.293Z,5.83
2018-05-17T19:44:52.478Z,5.90
2018-05-17T19:47:21.376Z,6.50
2018-05-17T19:49:49.519Z,5.77
2018-05-17T19:52:18.699Z,5.80
2018-05-17T19:54:47.131Z,5.83
2018-05-17T19:57:15.514Z,5.83
2018-05-17T19:59:43.977Z,6.47
2018-05-17T20:02:12.917Z,6.23
2018-05-17T20:04:41.442Z,5.83
2018-05-17T20:07:10.138Z,6.27
2018-05-17T20:09:38.662Z,5.67
2018-05-17T20:12:07.228Z,5.17
2018-05-17T20:14:35.650Z,5.93
2018-05-17T20:17:04.070Z,6.40
2018-05-17T20:19:32.479Z,5.43
2018-05-17T20:22:01.122Z,6.17
2018-05-17T20:24:31.319Z,5.30
2018-05-17T20:27:00.471Z,5.27
2018-05-17T20:29:28.892Z,5.57
2018-05-17T20:31:57.798Z,5.13
2018-05-17T20:34:26.465Z,6.30
2018-05-17T20:36:54.613Z,5.20
2018-05-17T20:39:23.203Z,5.20
2018-05-17T20:41:51.612Z,6.13
2018-05-17T20:44:20.663Z,5.47
2018-05-17T20:46:49.303Z,6.57
2018-05-17T20:49:18.142Z,5.27
2018-05-17T20:51:46.310Z,5.73
2018-05-17T20:54:15.390Z,5.77
2018-05-17T20:56:44.659Z,6.23
2018-05-17T20:59:13.185Z,5.50
2018-05-17T21:01:41.607Z,5.73
2018-05-17T21:04:11.594Z,4.53
2018-05-17T21:06:40.746Z,5.50
2018-05-17T21:09:10.406Z,5.80
2018-05-17T21:11:38.591Z,5.80
2018-05-17T21:14:07.159Z,5.70
2018-05-17T21:16:35.789Z,6.43
2018-05-17T21:19:04.210Z,5.73
2018-05-17T21:21:32.359Z,5.33
2018-05-17T21:24:01.355Z,5.23
2018-05-17T21:26:29.999Z,5.73
2018-05-17T21:28:58.417Z,5.87
2018-05-17T21:31:27.848Z,5.93
2018-05-17T21:33:56.023Z,6.70
2018-05-17T21:36:25.875Z,5.77
2018-05-17T21:38:55.236Z,5.80
2018-05-17T21:41:23.387Z,5.67
2018-05-17T21:43:51.567Z,4.60
2018-05-17T21:46:20.818Z,5.47
2018-05-17T21:48:49.443Z,4.87
2018-05-17T21:51:17.618Z,5.80
2018-05-17T21:53:46.182Z,7.57
2018-05-17T21:56:14.559Z,5.33
2018-05-17T21:58:43.434Z,6.00
2018-05-17T22:01:11.862Z,5.30
2018-05-17T22:03:41.106Z,5.30
2018-05-17T22:06:10.085Z,5.13
2018-05-17T22:08:40.350Z,5.93
2018-05-17T22:11:09.098Z,6.40
2018-05-17T22:13:37.926Z,6.63
2018-05-17T22:16:06.352Z,6.67
2018-05-17T22:18:36.568Z,5.80
2018-05-17T22:21:05.082Z,5.77
2018-05-17T22:23:33.502Z,5.57
2018-05-17T22:26:02.342Z,5.77
2018-05-17T22:28:30.494Z,5.30
2018-05-17T22:31:00.124Z,5.30
2018-05-17T22:33:28.650Z,7.13
2018-05-17T22:35:57.719Z,7.83
2018-05-17T22:38:26.223Z,5.77
2018-05-17T22:40:54.370Z,7.10
2018-05-17T22:43:23.471Z,6.63
2018-05-17T22:45:52.623Z,6.30
2018-05-17T22:48:21.670Z,5.73
2018-05-17T22:50:50.891Z,5.73
2018-05-17T22:53:19.083Z,6.23
2018-05-17T22:55:48.186Z,6.27
2018-05-17T22:58:29.879Z,7.23
2018-05-17T23:00:58.054Z,7.40
2018-05-17T23:03:26.732Z,6.97
2018-05-17T23:05:55.214Z,6.70
2018-05-17T23:08:24.407Z,7.77
2018-05-17T23:10:52.998Z,5.70
2018-05-17T23:13:22.085Z,6.97
2018-05-17T23:15:51.133Z,7.00
2018-05-17T23:18:20.063Z,6.97
2018-05-17T23:20:48.247Z,5.90
2018-05-17T23:23:16.711Z,5.77
2018-05-17T23:25:45.132Z,6.20
2018-05-17T23:28:14.286Z,9.93
2018-05-17T23:30:42.670Z,9.03
2018-05-17T23:33:11.133Z,7.33
2018-05-17T23:35:39.548Z,8.23
2018-05-17T23:38:08.909Z,9.37
2018-05-17T23:43:43.666Z,10.37
2018-05-17T23:46:12.401Z,7.33
2018-05-17T23:48:41.032Z,6.70
2018-05-17T23:51:09.230Z,5.70
2018-05-17T23:53:38.310Z,7.00
2018-05-17T23:56:07.639Z,6.37
2018-05-17T23:58:36.875Z,6.50
